createdAt,value
2023-02-11T00:00:22.192Z,102669.81
2023-02-11T00:03:25.451Z,102662.19
2023-02-11T00:06:29.577Z,102667.09
2023-02-11T00:09:31.981Z,102647.41
2023-02-11T00:12:35.888Z,102655.06
2023-02-11T00:15:38.746Z,102646.84
2023-02-11T00:18:41.035Z,102623.63
2023-02-11T00:21:45.173Z,102639.22
2023-02-11T00:24:47.307Z,102638.78
2023-02-11T00:27:52.053Z,102644.44
2023-02-11T00:30:56.260Z,102645.94
2023-02-11T00:34:01.801Z,102615.97
2023-02-11T00:37:08.039Z,102636.22
2023-02-11T00:40:10.557Z,102635.63
2023-02-11T00:43:12.819Z,102638.78
2023-02-11T00:46:16.151Z,102634.53
2023-02-11T00:49:19.391Z,102643.44
2023-02-11T00:52:21.461Z,102638.28
2023-02-11T00:55:23.810Z,102631.41
2023-02-11T00:58:25.865Z,102629.81
2023-02-11T01:01:28.239Z,102623.69
2023-02-11T01:04:30.478Z,102617.13
2023-02-11T01:07:32.427Z,102612.13
2023-02-11T01:10:34.479Z,102604.31
2023-02-11T01:13:40.361Z,102598.94
2023-02-11T01:16:42.353Z,102599.09
2023-02-11T01:19:44.519Z,102590.00
2023-02-11T01:22:46.542Z,102583.41
2023-02-11T01:25:53.040Z,102584.03
2023-02-11T01:28:55.509Z,102578.69
2023-02-11T01:31:58.008Z,102569.03
2023-02-11T01:35:00.122Z,102577.59
2023-02-11T01:38:02.148Z,102564.69
2023-02-11T01:41:10.451Z,102569.78
2023-02-11T01:44:44.843Z,102572.72
2023-02-11T01:47:46.801Z,102577.88
2023-02-11T01:50:53.141Z,102573.94
2023-02-11T01:54:15.009Z,102571.72
2023-02-11T01:57:29.900Z,102568.06
2023-02-11T02:00:37.274Z,102564.25
2023-02-11T02:03:44.482Z,102570.84
2023-02-11T02:06:53.713Z,102560.31
2023-02-11T02:10:03.680Z,102560.09
2023-02-11T02:13:05.732Z,102570.47
2023-02-11T02:16:16.843Z,102565.50
2023-02-11T02:19:42.467Z,102570.53
2023-02-11T02:22:56.741Z,102565.25
2023-02-11T02:26:14.823Z,102562.56
2023-02-11T02:29:54.861Z,102565.09
2023-02-11T02:33:41.204Z,102557.81
2023-02-11T02:37:01.366Z,102556.81
2023-02-11T02:40:11.883Z,102546.66
2023-02-11T02:43:15.494Z,102550.19
2023-02-11T02:46:30.482Z,102557.59
2023-02-11T02:49:32.364Z,102559.44
2023-02-11T02:53:12.414Z,102560.97
2023-02-11T02:56:18.321Z,102549.00
2023-02-11T02:59:53.661Z,102546.63
2023-02-11T03:03:44.488Z,102548.34
2023-02-11T03:06:55.307Z,102546.09
2023-02-11T03:10:22.713Z,102548.69
2023-02-11T03:13:29.982Z,102541.81
2023-02-11T03:16:39.255Z,102537.31
2023-02-11T03:19:44.231Z,102540.09
2023-02-11T03:23:20.992Z,102532.78
2023-02-11T03:26:35.203Z,102525.84
2023-02-11T03:29:51.789Z,102532.19
2023-02-11T03:33:05.730Z,102518.38
2023-02-11T03:36:20.355Z,102527.25
2023-02-11T03:39:30.893Z,102514.94
2023-02-11T03:42:41.739Z,102505.84
2023-02-11T03:45:49.538Z,102509.31
2023-02-11T03:48:59.023Z,102501.50
2023-02-11T03:52:03.518Z,102492.19
2023-02-11T03:55:13.384Z,102493.31
2023-02-11T03:58:16.968Z,102472.84
2023-02-11T04:01:20.706Z,102479.75
2023-02-11T04:04:22.816Z,102481.75
2023-02-11T04:07:25.706Z,102464.00
2023-02-11T04:10:27.717Z,102472.09
2023-02-11T04:13:30.614Z,102468.63
2023-02-11T04:16:32.701Z,102457.41
2023-02-11T04:19:35.430Z,102459.00
2023-02-11T04:22:39.129Z,102455.88
2023-02-11T04:25:41.075Z,102456.06
2023-02-11T04:28:43.033Z,102456.44
2023-02-11T04:31:45.819Z,102453.19
2023-02-11T04:34:48.530Z,102452.28
2023-02-11T04:37:50.755Z,102460.84
2023-02-11T04:40:55.945Z,102452.91
2023-02-11T04:43:58.143Z,102455.06
2023-02-11T04:47:00.135Z,102450.78
2023-02-11T04:50:02.282Z,102450.72
2023-02-11T04:53:04.371Z,102447.22
2023-02-11T04:56:08.350Z,102454.91
2023-02-11T04:59:11.621Z,102442.00
2023-02-11T05:02:13.935Z,102452.91
2023-02-11T05:05:16.101Z,102443.03
2023-02-11T05:08:18.133Z,102452.31
2023-02-11T05:11:23.256Z,102461.34
2023-02-11T05:14:25.459Z,102458.50
2023-02-11T05:17:27.535Z,102463.91
2023-02-11T05:20:30.618Z,102462.47
2023-02-11T05:23:35.634Z,102460.91
2023-02-11T05:26:40.309Z,102455.50
2023-02-11T05:29:42.776Z,102448.78
2023-02-11T05:32:44.794Z,102459.44
2023-02-11T05:35:46.823Z,102446.34
2023-02-11T05:38:48.895Z,102442.22
2023-02-11T05:41:52.409Z,102447.50
2023-02-11T05:44:54.243Z,102438.81
2023-02-11T05:47:57.844Z,102431.94
2023-02-11T05:51:00.081Z,102440.19
2023-02-11T05:54:02.098Z,102439.94
2023-02-11T05:57:04.367Z,102442.09
2023-02-11T06:00:08.707Z,102447.50
2023-02-11T06:03:10.739Z,102439.28
2023-02-11T06:06:12.879Z,102447.66
2023-02-11T06:09:15.477Z,102450.97
2023-02-11T06:12:17.598Z,102445.44
2023-02-11T06:15:19.573Z,102455.44
2023-02-11T06:18:21.527Z,102447.59
2023-02-11T06:21:33.532Z,102446.75
2023-02-11T06:25:00.469Z,102446.56
2023-02-11T06:28:06.633Z,102433.03
2023-02-11T06:31:09.803Z,102439.38
2023-02-11T06:34:14.866Z,102431.56
2023-02-11T06:37:16.828Z,102439.97
2023-02-11T06:40:18.824Z,102440.03
2023-02-11T06:43:21.127Z,102433.50
2023-02-11T06:46:23.485Z,102431.94
2023-02-11T06:49:25.840Z,102432.88
2023-02-11T06:52:27.862Z,102435.97
2023-02-11T06:55:29.912Z,102425.75
2023-02-11T06:58:32.714Z,102428.09
2023-02-11T07:01:35.155Z,102424.72
2023-02-11T07:04:37.334Z,102425.19
2023-02-11T07:07:39.375Z,102416.56
2023-02-11T07:10:41.818Z,102414.91
2023-02-11T07:13:43.944Z,102421.94
2023-02-11T07:16:45.826Z,102429.09
2023-02-11T07:19:47.792Z,102414.84
2023-02-11T07:22:50.189Z,102413.22
2023-02-11T07:25:52.885Z,102417.19
2023-02-11T07:28:55.285Z,102430.66
2023-02-11T07:31:57.893Z,102421.22
2023-02-11T07:35:00.229Z,102424.13
2023-02-11T07:38:02.944Z,102417.03
2023-02-11T07:41:11.396Z,102406.81
2023-02-11T07:44:15.806Z,102407.53
2023-02-11T07:47:18.549Z,102406.50
2023-02-11T07:50:20.930Z,102398.38
2023-02-11T07:53:22.955Z,102388.88
2023-02-11T07:56:25.357Z,102390.41
2023-02-11T07:59:27.608Z,102391.63
2023-02-11T08:02:29.807Z,102388.63
2023-02-11T08:05:31.953Z,102384.38
2023-02-11T08:08:35.491Z,102387.16
2023-02-11T08:11:37.696Z,102379.22
2023-02-11T08:14:40.016Z,102380.50
2023-02-11T08:17:42.052Z,102384.59
2023-02-11T08:20:45.015Z,102383.31
2023-02-11T08:23:47.467Z,102391.09
2023-02-11T08:26:49.838Z,102376.25
2023-02-11T08:29:52.169Z,102386.94
2023-02-11T08:32:54.173Z,102379.31
2023-02-11T08:35:56.096Z,102376.25
2023-02-11T08:39:16.108Z,102383.75
2023-02-11T08:42:20.004Z,102378.16
2023-02-11T08:45:22.160Z,102370.53
2023-02-11T08:48:25.727Z,102372.38
2023-02-11T08:51:31.551Z,102367.44
2023-02-11T08:54:33.677Z,102368.06
2023-02-11T08:57:35.928Z,102384.59
2023-02-11T09:00:38.451Z,102380.00
2023-02-11T09:03:40.650Z,102373.47
2023-02-11T09:06:42.604Z,102367.09
2023-02-11T09:09:44.656Z,102369.13
2023-02-11T09:12:47.216Z,102356.78
2023-02-11T09:15:49.326Z,102362.16
2023-02-11T09:18:51.453Z,102362.22
2023-02-11T09:21:53.262Z,102366.75
2023-02-11T09:24:55.649Z,102366.63
2023-02-11T09:27:58.226Z,102352.88
2023-02-11T09:31:09.073Z,102346.41
2023-02-11T09:34:12.016Z,102348.19
2023-02-11T09:37:14.574Z,102339.28
2023-02-11T09:40:17.354Z,102346.63
2023-02-11T09:43:29.444Z,102339.25
2023-02-11T09:46:37.722Z,102338.56
2023-02-11T09:49:48.572Z,102338.78
2023-02-11T09:53:11.088Z,102338.16
2023-02-11T09:56:15.526Z,102333.03
2023-02-11T09:59:18.674Z,102321.28
2023-02-11T10:02:29.018Z,102323.66
2023-02-11T10:05:52.437Z,102324.06
2023-02-11T10:09:18.855Z,102320.25
2023-02-11T10:13:04.052Z,102321.38
2023-02-11T10:16:21.292Z,102312.22
2023-02-11T10:19:41.317Z,102306.22
2023-02-11T10:22:54.052Z,102308.88
2023-02-11T10:25:57.833Z,102302.94
2023-02-11T10:29:05.622Z,102294.31
2023-02-11T10:32:25.796Z,102280.44
2023-02-11T10:35:27.738Z,102280.81
2023-02-11T10:38:34.210Z,102286.34
2023-02-11T10:41:41.969Z,102276.91
2023-02-11T10:44:58.040Z,102278.28
2023-02-11T10:48:01.848Z,102276.13
2023-02-11T10:51:34.244Z,102259.69
2023-02-11T10:54:36.530Z,102262.38
2023-02-11T10:57:50.465Z,102252.41
2023-02-11T11:00:55.776Z,102254.59
2023-02-11T11:04:00.290Z,102241.69
2023-02-11T11:07:30.835Z,102244.28
2023-02-11T11:10:45.188Z,102231.75
2023-02-11T11:13:58.212Z,102228.19
2023-02-11T11:17:00.179Z,102224.06
2023-02-11T11:20:20.675Z,102218.38
2023-02-11T11:23:24.847Z,102225.91
2023-02-11T11:26:39.653Z,102220.84
2023-02-11T11:29:55.449Z,102204.94
2023-02-11T11:32:58.740Z,102203.88
2023-02-11T11:36:07.967Z,102201.97
2023-02-11T11:39:16.141Z,102194.78
2023-02-11T11:42:25.780Z,102190.81
2023-02-11T11:45:28.123Z,102165.03
2023-02-11T11:48:39.545Z,102169.84
2023-02-11T11:51:47.903Z,102178.09
2023-02-11T11:54:59.044Z,102163.72
2023-02-11T11:58:01.944Z,102163.41
2023-02-11T12:01:19.255Z,102161.84
2023-02-11T12:04:48.174Z,102157.41
2023-02-11T12:08:08.037Z,102147.59
2023-02-11T12:11:12.710Z,102137.84
2023-02-11T12:14:33.057Z,102113.47
2023-02-11T12:17:47.207Z,102102.44
2023-02-11T12:21:14.062Z,102101.66
2023-02-11T12:24:33.214Z,102084.47
2023-02-11T12:27:50.103Z,102075.34
2023-02-11T12:31:04.543Z,102075.94
2023-02-11T12:34:42.106Z,102068.25
2023-02-11T12:38:05.774Z,102075.66
2023-02-11T12:41:47.011Z,102066.53
2023-02-11T12:45:07.774Z,102067.03
2023-02-11T12:48:13.098Z,102069.00
2023-02-11T12:51:34.216Z,102061.91
2023-02-11T12:54:54.254Z,102062.31
2023-02-11T12:57:59.487Z,102033.88
2023-02-11T13:01:08.391Z,102020.78
2023-02-11T13:04:24.102Z,102039.53
2023-02-11T13:07:33.357Z,102044.06
2023-02-11T13:10:38.342Z,102054.09
2023-02-11T13:14:04.558Z,102042.41
2023-02-11T13:17:17.544Z,102036.13
2023-02-11T13:20:33.066Z,102023.19
2023-02-11T13:24:09.850Z,102012.94
2023-02-11T13:27:29.969Z,102017.13
2023-02-11T13:30:35.923Z,102013.31
2023-02-11T13:33:44.349Z,101999.78
2023-02-11T13:36:55.192Z,101998.50
2023-02-11T13:40:04.054Z,101997.56
2023-02-11T13:43:19.204Z,101997.47
2023-02-11T13:46:21.858Z,101996.56
2023-02-11T13:49:40.797Z,102000.31
2023-02-11T13:52:43.146Z,101998.91
2023-02-11T13:55:47.692Z,101997.97
2023-02-11T13:58:59.046Z,102010.88
2023-02-11T14:02:47.438Z,102016.03
2023-02-11T14:06:28.781Z,102020.88
2023-02-11T14:09:37.416Z,102005.09
2023-02-11T14:12:39.577Z,101997.09
2023-02-11T14:15:41.539Z,101983.53
2023-02-11T14:18:50.045Z,101996.06
2023-02-11T14:21:52.184Z,101984.69
2023-02-11T14:25:01.734Z,102009.78
2023-02-11T14:28:16.841Z,102000.84
2023-02-11T14:31:25.138Z,102019.94
2023-02-11T14:35:05.179Z,102017.31
2023-02-11T14:38:37.763Z,102020.75
2023-02-11T14:41:42.940Z,102023.34
2023-02-11T14:44:46.059Z,102024.31
2023-02-11T14:48:03.501Z,102021.38
2023-02-11T14:51:13.857Z,102018.91
2023-02-11T14:54:22.798Z,102011.28
2023-02-11T14:57:25.419Z,101999.84
2023-02-11T15:00:27.765Z,102002.00
2023-02-11T15:03:48.148Z,101994.09
2023-02-11T15:06:50.777Z,101984.00
2023-02-11T15:09:57.331Z,101971.72
2023-02-11T15:13:02.396Z,101978.06
2023-02-11T15:16:11.271Z,101962.63
2023-02-11T15:19:41.203Z,101967.13
2023-02-11T15:22:46.193Z,101962.34
2023-02-11T15:25:56.514Z,101959.53
2023-02-11T15:29:01.559Z,101966.41
2023-02-11T15:32:07.189Z,101968.91
2023-02-11T15:35:12.006Z,101963.19
2023-02-11T15:38:14.468Z,101957.88
2023-02-11T15:41:38.210Z,101957.56
2023-02-11T15:44:40.243Z,101934.22
2023-02-11T15:47:51.603Z,101945.28
2023-02-11T15:50:58.752Z,101943.09
2023-02-11T15:54:17.076Z,101941.06
2023-02-11T15:57:21.811Z,101949.72
2023-02-11T16:00:28.894Z,101942.44
2023-02-11T16:03:33.728Z,101936.94
2023-02-11T16:06:43.302Z,101928.25
2023-02-11T16:09:45.595Z,101919.03
2023-02-11T16:12:53.185Z,101924.88
2023-02-11T16:16:01.734Z,101923.03
2023-02-11T16:19:06.205Z,101925.59
2023-02-11T16:22:15.937Z,101921.75
2023-02-11T16:25:21.249Z,101917.19
2023-02-11T16:28:23.817Z,101915.91
2023-02-11T16:31:36.774Z,101911.25
2023-02-11T16:34:39.017Z,101910.78
2023-02-11T16:37:41.188Z,101920.38
2023-02-11T16:40:45.004Z,101920.19
2023-02-11T16:43:47.699Z,101919.84
2023-02-11T16:46:49.960Z,101931.31
2023-02-11T16:49:52.866Z,101922.16
2023-02-11T16:52:57.500Z,101912.59
2023-02-11T16:55:59.674Z,101908.22
2023-02-11T16:59:02.081Z,101908.78
2023-02-11T17:02:04.043Z,101923.56
2023-02-11T17:05:15.515Z,101906.72
2023-02-11T17:08:17.731Z,101915.25
2023-02-11T17:11:19.994Z,101916.19
2023-02-11T17:14:21.902Z,101918.63
2023-02-11T17:17:24.123Z,101919.22
2023-02-11T17:20:26.601Z,101923.28
2023-02-11T17:23:28.825Z,101907.69
2023-02-11T17:26:30.905Z,101924.56
2023-02-11T17:29:36.830Z,101931.16
2023-02-11T17:32:38.951Z,101934.91
2023-02-11T17:35:41.222Z,101937.56
2023-02-11T17:38:44.729Z,101933.06
2023-02-11T17:41:47.695Z,101935.59
2023-02-11T17:44:49.644Z,101928.28
2023-02-11T17:47:52.393Z,101926.03
2023-02-11T17:50:54.689Z,101922.00
2023-02-11T17:53:58.967Z,101934.56
2023-02-11T17:57:01.112Z,101917.25
2023-02-11T18:00:06.433Z,101902.50
2023-02-11T18:03:09.005Z,101902.44
2023-02-11T18:06:12.415Z,101901.41
2023-02-11T18:09:16.023Z,101894.47
2023-02-11T18:12:25.606Z,101888.97
2023-02-11T18:15:29.320Z,101894.13
2023-02-11T18:18:32.144Z,101890.41
2023-02-11T18:21:34.675Z,101894.38
2023-02-11T18:24:36.875Z,101887.09
2023-02-11T18:27:41.819Z,101881.56
2023-02-11T18:30:44.212Z,101875.75
2023-02-11T18:33:47.929Z,101872.56
2023-02-11T18:36:50.619Z,101888.88
2023-02-11T18:39:53.470Z,101882.63
2023-02-11T18:42:56.137Z,101889.66
2023-02-11T18:45:58.945Z,101887.13
2023-02-11T18:49:01.368Z,101886.38
2023-02-11T18:52:04.284Z,101888.91
2023-02-11T18:55:09.275Z,101891.50
2023-02-11T18:58:12.248Z,101878.84
2023-02-11T19:01:22.876Z,101881.09
2023-02-11T19:04:25.453Z,101883.03
2023-02-11T19:07:27.690Z,101886.34
2023-02-11T19:10:30.084Z,101890.97
2023-02-11T19:13:32.639Z,101890.78
2023-02-11T19:16:34.927Z,101894.88
2023-02-11T19:19:37.351Z,101902.69
2023-02-11T19:22:39.521Z,101899.06
2023-02-11T19:25:47.994Z,101900.78
2023-02-11T19:28:50.148Z,101896.59
2023-02-11T19:31:52.699Z,101897.78
2023-02-11T19:34:55.061Z,101893.38
2023-02-11T19:37:57.556Z,101891.34
2023-02-11T19:41:03.895Z,101892.41
2023-02-11T19:44:08.317Z,101884.66
2023-02-11T19:47:10.689Z,101889.09
2023-02-11T19:50:13.522Z,101896.47
2023-02-11T19:53:15.798Z,101892.84
2023-02-11T19:56:20.833Z,101904.66
2023-02-11T19:59:23.826Z,101892.81
2023-02-11T20:02:30.031Z,101883.06
2023-02-11T20:05:32.292Z,101885.94
2023-02-11T20:08:34.471Z,101886.03
2023-02-11T20:11:39.744Z,101881.59
2023-02-11T20:14:42.215Z,101886.16
2023-02-11T20:17:44.458Z,101875.28
2023-02-11T20:20:46.598Z,101875.69
2023-02-11T20:24:08.233Z,101858.22
2023-02-11T20:27:12.513Z,101869.09
2023-02-11T20:30:17.330Z,101882.72
2023-02-11T20:33:21.631Z,101880.34
2023-02-11T20:36:26.637Z,101871.41
2023-02-11T20:39:28.588Z,101878.50
2023-02-11T20:42:30.447Z,101872.88
2023-02-11T20:45:35.803Z,101869.13
2023-02-11T20:48:38.432Z,101864.97
2023-02-11T20:51:40.725Z,101869.34
2023-02-11T20:54:43.489Z,101877.44
2023-02-11T20:57:46.661Z,101847.06
2023-02-11T21:00:48.983Z,101869.44
2023-02-11T21:03:54.543Z,101875.44
2023-02-11T21:06:59.594Z,101870.56
2023-02-11T21:10:01.931Z,101865.91
2023-02-11T21:13:04.182Z,101843.63
2023-02-11T21:16:07.453Z,101854.03
2023-02-11T21:19:09.683Z,101859.13
2023-02-11T21:22:12.667Z,101851.00
2023-02-11T21:25:18.200Z,101849.84
2023-02-11T21:28:30.991Z,101862.00
2023-02-11T21:31:34.476Z,101868.69
2023-02-11T21:34:36.631Z,101863.16
2023-02-11T21:37:38.725Z,101851.84
2023-02-11T21:40:42.308Z,101848.41
2023-02-11T21:43:45.670Z,101845.91
2023-02-11T21:46:50.020Z,101868.13
2023-02-11T21:49:55.500Z,101862.66
2023-02-11T21:52:57.882Z,101846.22
2023-02-11T21:56:04.552Z,101838.84
2023-02-11T21:59:08.044Z,101845.16
2023-02-11T22:02:11.504Z,101828.72
2023-02-11T22:05:13.638Z,101849.38
2023-02-11T22:08:16.683Z,101847.06
2023-02-11T22:11:20.781Z,101862.81
2023-02-11T22:14:22.966Z,101866.91
2023-02-11T22:17:25.067Z,101866.91
2023-02-11T22:20:27.474Z,101853.41
2023-02-11T22:23:30.364Z,101854.84
2023-02-11T22:26:36.500Z,101870.63
2023-02-11T22:29:38.857Z,101858.69
2023-02-11T22:32:44.600Z,101853.63
2023-02-11T22:35:46.745Z,101862.44
2023-02-11T22:38:53.007Z,101889.72
2023-02-11T22:41:56.595Z,101890.91
2023-02-11T22:44:58.443Z,101885.34
2023-02-11T22:48:04.074Z,101875.47
2023-02-11T22:51:15.212Z,101881.41
2023-02-11T22:54:19.011Z,101870.69
2023-02-11T22:57:20.909Z,101871.31
2023-02-11T23:00:26.489Z,101878.66
2023-02-11T23:03:28.963Z,101874.41
2023-02-11T23:06:30.864Z,101880.53
2023-02-11T23:09:32.906Z,101882.13
2023-02-11T23:12:35.164Z,101880.38
2023-02-11T23:15:42.073Z,101883.72
2023-02-11T23:18:45.596Z,101883.81
2023-02-11T23:21:51.101Z,101876.00
2023-02-11T23:24:53.176Z,101867.66
2023-02-11T23:27:55.233Z,101865.56
2023-02-11T23:30:57.423Z,101876.69
2023-02-11T23:34:01.146Z,101875.09
2023-02-11T23:37:03.418Z,101863.63
2023-02-11T23:40:05.872Z,101862.03
2023-02-11T23:43:08.129Z,101856.00
2023-02-11T23:46:10.950Z,101858.50
2023-02-11T23:49:13.255Z,101857.50
2023-02-11T23:52:15.231Z,101857.50
2023-02-11T23:55:17.425Z,101841.94
2023-02-11T23:58:19.297Z,101854.09
